sensor_id;sensor_type;location;lat;lon;timestamp;temperature;humidity
11597;DHT22;5854;48.072;16.286;2023-12-20T00:00:35;-0.10;85.20
11597;DHT22;5854;48.072;16.286;2023-12-20T00:03:03;-0.10;86.60
11597;DHT22;5854;48.072;16.286;2023-12-20T00:05:31;-0.40;86.40
11597;DHT22;5854;48.072;16.286;2023-12-20T00:07:59;-0.10;89.30
11597;DHT22;5854;48.072;16.286;2023-12-20T00:10:26;0.00;87.90
11597;DHT22;5854;48.072;16.286;2023-12-20T00:12:53;-0.30;85.40
11597;DHT22;5854;48.072;16.286;2023-12-20T00:15:22;-0.20;87.60
11597;DHT22;5854;48.072;16.286;2023-12-20T00:17:49;-0.20;87.20
11597;DHT22;5854;48.072;16.286;2023-12-20T00:20:16;-0.30;88.30
11597;DHT22;5854;48.072;16.286;2023-12-20T00:22:43;-0.20;89.90
11597;DHT22;5854;48.072;16.286;2023-12-20T00:25:11;-0.30;85.80
11597;DHT22;5854;48.072;16.286;2023-12-20T00:27:38;-0.40;88.60
11597;DHT22;5854;48.072;16.286;2023-12-20T00:30:06;-0.60;89.10
11597;DHT22;5854;48.072;16.286;2023-12-20T00:32:36;-0.30;93.40
11597;DHT22;5854;48.072;16.286;2023-12-20T00:35:04;-0.20;90.30
11597;DHT22;5854;48.072;16.286;2023-12-20T00:37:31;-0.10;92.20
11597;DHT22;5854;48.072;16.286;2023-12-20T00:39:59;0.10;91.50
11597;DHT22;5854;48.072;16.286;2023-12-20T00:42:26;0.10;89.00
11597;DHT22;5854;48.072;16.286;2023-12-20T00:44:53;0.20;89.80
11597;DHT22;5854;48.072;16.286;2023-12-20T00:47:20;0.10;89.30
11597;DHT22;5854;48.072;16.286;2023-12-20T00:49:49;-0.20;85.80
11597;DHT22;5854;48.072;16.286;2023-12-20T00:52:16;-0.20;88.70
11597;DHT22;5854;48.072;16.286;2023-12-20T00:54:44;-0.30;90.90
11597;DHT22;5854;48.072;16.286;2023-12-20T00:57:11;-0.20;91.70
11597;DHT22;5854;48.072;16.286;2023-12-20T00:59:39;-0.10;91.20
11597;DHT22;5854;48.072;16.286;2023-12-20T01:02:06;0.10;93.20
11597;DHT22;5854;48.072;16.286;2023-12-20T01:04:34;0.10;88.20
11597;DHT22;5854;48.072;16.286;2023-12-20T01:07:03;-0.30;88.40
11597;DHT22;5854;48.072;16.286;2023-12-20T01:09:30;-0.60;90.20
11597;DHT22;5854;48.072;16.286;2023-12-20T01:11:58;-0.70;91.40
11597;DHT22;5854;48.072;16.286;2023-12-20T01:14:25;-0.80;93.50
11597;DHT22;5854;48.072;16.286;2023-12-20T01:16:52;-0.40;96.50
11597;DHT22;5854;48.072;16.286;2023-12-20T01:19:19;-0.40;95.00
11597;DHT22;5854;48.072;16.286;2023-12-20T01:21:47;-0.50;92.10
11597;DHT22;5854;48.072;16.286;2023-12-20T01:24:15;-0.80;91.70
11597;DHT22;5854;48.072;16.286;2023-12-20T01:26:42;-0.70;93.90
11597;DHT22;5854;48.072;16.286;2023-12-20T01:29:10;-0.30;96.70
11597;DHT22;5854;48.072;16.286;2023-12-20T01:31:37;-0.20;93.40
11597;DHT22;5854;48.072;16.286;2023-12-20T01:34:05;-0.50;90.90
11597;DHT22;5854;48.072;16.286;2023-12-20T01:36:32;-0.60;92.70
11597;DHT22;5854;48.072;16.286;2023-12-20T01:38:59;-0.50;94.60
11597;DHT22;5854;48.072;16.286;2023-12-20T01:41:28;-0.50;93.60
11597;DHT22;5854;48.072;16.286;2023-12-20T01:43:55;-0.30;94.40
11597;DHT22;5854;48.072;16.286;2023-12-20T01:46:22;-0.30;91.60
11597;DHT22;5854;48.072;16.286;2023-12-20T01:48:49;-0.30;91.00
11597;DHT22;5854;48.072;16.286;2023-12-20T01:51:17;-0.50;89.70
11597;DHT22;5854;48.072;16.286;2023-12-20T01:53:44;-0.40;91.60
11597;DHT22;5854;48.072;16.286;2023-12-20T01:56:12;-0.50;90.90
11597;DHT22;5854;48.072;16.286;2023-12-20T01:58:44;-0.30;92.10
11597;DHT22;5854;48.072;16.286;2023-12-20T02:01:12;-0.40;87.90
11597;DHT22;5854;48.072;16.286;2023-12-20T02:03:40;-0.50;87.70
11597;DHT22;5854;48.072;16.286;2023-12-20T02:06:07;-0.60;88.80
11597;DHT22;5854;48.072;16.286;2023-12-20T02:08:36;-0.40;90.30
11597;DHT22;5854;48.072;16.286;2023-12-20T02:11:03;-0.40;89.20
11597;DHT22;5854;48.072;16.286;2023-12-20T02:13:31;-0.40;87.60
11597;DHT22;5854;48.072;16.286;2023-12-20T02:16:00;-0.40;87.40
11597;DHT22;5854;48.072;16.286;2023-12-20T02:18:28;-0.40;88.10
11597;DHT22;5854;48.072;16.286;2023-12-20T02:20:55;-0.50;88.40
11597;DHT22;5854;48.072;16.286;2023-12-20T02:23:24;-0.50;86.50
11597;DHT22;5854;48.072;16.286;2023-12-20T02:25:51;-0.80;86.80
11597;DHT22;5854;48.072;16.286;2023-12-20T02:28:18;-0.70;88.20
11597;DHT22;5854;48.072;16.286;2023-12-20T02:30:47;-0.70;87.60
11597;DHT22;5854;48.072;16.286;2023-12-20T02:33:15;-0.70;86.30
11597;DHT22;5854;48.072;16.286;2023-12-20T02:35:43;-0.80;85.10
11597;DHT22;5854;48.072;16.286;2023-12-20T02:38:10;-1.00;85.40
11597;DHT22;5854;48.072;16.286;2023-12-20T02:40:39;-1.20;84.20
11597;DHT22;5854;48.072;16.286;2023-12-20T02:43:06;-1.40;86.20
11597;DHT22;5854;48.072;16.286;2023-12-20T02:45:34;-1.40;88.30
11597;DHT22;5854;48.072;16.286;2023-12-20T02:48:02;-1.20;89.40
11597;DHT22;5854;48.072;16.286;2023-12-20T02:50:29;-1.20;88.70
11597;DHT22;5854;48.072;16.286;2023-12-20T02:52:56;-1.10;88.60
11597;DHT22;5854;48.072;16.286;2023-12-20T02:55:23;-0.90;88.20
11597;DHT22;5854;48.072;16.286;2023-12-20T02:57:52;-1.00;85.90
11597;DHT22;5854;48.072;16.286;2023-12-20T03:00:19;-1.10;85.30
11597;DHT22;5854;48.072;16.286;2023-12-20T03:02:47;-1.10;85.20
11597;DHT22;5854;48.072;16.286;2023-12-20T03:05:14;-1.20;84.00
11597;DHT22;5854;48.072;16.286;2023-12-20T03:07:41;-1.10;87.70
11597;DHT22;5854;48.072;16.286;2023-12-20T03:10:09;-0.90;87.40
11597;DHT22;5854;48.072;16.286;2023-12-20T03:12:36;-1.10;85.40
11597;DHT22;5854;48.072;16.286;2023-12-20T03:15:05;-1.20;84.30
11597;DHT22;5854;48.072;16.286;2023-12-20T03:17:33;-1.10;86.60
11597;DHT22;5854;48.072;16.286;2023-12-20T03:20:00;-1.10;88.40
11597;DHT22;5854;48.072;16.286;2023-12-20T03:22:28;-1.00;86.90
11597;DHT22;5854;48.072;16.286;2023-12-20T03:24:55;-0.90;87.10
11597;DHT22;5854;48.072;16.286;2023-12-20T03:27:22;-0.80;87.10
11597;DHT22;5854;48.072;16.286;2023-12-20T03:29:49;-0.90;84.40
11597;DHT22;5854;48.072;16.286;2023-12-20T03:32:18;-1.10;82.20
11597;DHT22;5854;48.072;16.286;2023-12-20T03:34:45;-1.20;86.10
11597;DHT22;5854;48.072;16.286;2023-12-20T03:37:11;-1.20;86.40
11597;DHT22;5854;48.072;16.286;2023-12-20T03:39:39;-1.40;84.70
11597;DHT22;5854;48.072;16.286;2023-12-20T03:42:06;-1.40;87.50
11597;DHT22;5854;48.072;16.286;2023-12-20T03:44:33;-1.30;88.60
11597;DHT22;5854;48.072;16.286;2023-12-20T03:47:01;-1.30;87.30
11597;DHT22;5854;48.072;16.286;2023-12-20T03:49:29;-1.30;88.70
11597;DHT22;5854;48.072;16.286;2023-12-20T03:51:57;-1.20;87.80
11597;DHT22;5854;48.072;16.286;2023-12-20T03:54:24;-1.40;88.50
11597;DHT22;5854;48.072;16.286;2023-12-20T03:56:51;-1.50;88.90
11597;DHT22;5854;48.072;16.286;2023-12-20T03:59:19;-1.60;89.70
11597;DHT22;5854;48.072;16.286;2023-12-20T04:01:46;-1.50;91.90
11597;DHT22;5854;48.072;16.286;2023-12-20T04:04:14;-1.30;93.50
11597;DHT22;5854;48.072;16.286;2023-12-20T04:06:42;-1.20;92.50
11597;DHT22;5854;48.072;16.286;2023-12-20T04:09:10;-1.00;92.20
11597;DHT22;5854;48.072;16.286;2023-12-20T04:11:37;-0.80;92.50
11597;DHT22;5854;48.072;16.286;2023-12-20T04:14:04;-0.60;90.80
11597;DHT22;5854;48.072;16.286;2023-12-20T04:16:32;0.60;80.30
11597;DHT22;5854;48.072;16.286;2023-12-20T04:19:00;1.00;74.80
11597;DHT22;5854;48.072;16.286;2023-12-20T04:21:28;1.40;71.90
11597;DHT22;5854;48.072;16.286;2023-12-20T04:23:56;1.70;70.00
11597;DHT22;5854;48.072;16.286;2023-12-20T04:26:24;1.90;68.10
11597;DHT22;5854;48.072;16.286;2023-12-20T04:28:51;1.80;68.40
11597;DHT22;5854;48.072;16.286;2023-12-20T04:31:18;1.60;68.80
11597;DHT22;5854;48.072;16.286;2023-12-20T04:33:45;1.30;67.70
11597;DHT22;5854;48.072;16.286;2023-12-20T04:36:12;1.00;69.80
11597;DHT22;5854;48.072;16.286;2023-12-20T04:38:40;0.80;71.60
11597;DHT22;5854;48.072;16.286;2023-12-20T04:41:08;1.00;74.00
11597;DHT22;5854;48.072;16.286;2023-12-20T04:43:36;1.10;71.90
11597;DHT22;5854;48.072;16.286;2023-12-20T04:46:03;0.90;70.80
11597;DHT22;5854;48.072;16.286;2023-12-20T04:48:30;0.80;72.50
11597;DHT22;5854;48.072;16.286;2023-12-20T04:50:57;0.80;74.00
11597;DHT22;5854;48.072;16.286;2023-12-20T04:53:25;0.70;74.40
11597;DHT22;5854;48.072;16.286;2023-12-20T04:55:53;0.70;74.00
11597;DHT22;5854;48.072;16.286;2023-12-20T04:58:21;0.70;75.30
11597;DHT22;5854;48.072;16.286;2023-12-20T05:00:49;0.60;74.60
11597;DHT22;5854;48.072;16.286;2023-12-20T05:03:16;0.60;73.60
11597;DHT22;5854;48.072;16.286;2023-12-20T05:05:43;0.60;74.40
11597;DHT22;5854;48.072;16.286;2023-12-20T05:08:11;0.60;74.30
11597;DHT22;5854;48.072;16.286;2023-12-20T05:10:38;0.60;74.80
11597;DHT22;5854;48.072;16.286;2023-12-20T05:13:06;0.60;75.10
11597;DHT22;5854;48.072;16.286;2023-12-20T05:15:35;0.70;75.80
11597;DHT22;5854;48.072;16.286;2023-12-20T05:18:02;1.10;81.60
11597;DHT22;5854;48.072;16.286;2023-12-20T05:20:30;1.80;78.10
11597;DHT22;5854;48.072;16.286;2023-12-20T05:22:57;3.50;77.60
11597;DHT22;5854;48.072;16.286;2023-12-20T05:25:24;4.00;69.10
11597;DHT22;5854;48.072;16.286;2023-12-20T05:27:51;4.40;69.90
11597;DHT22;5854;48.072;16.286;2023-12-20T05:30:19;4.50;67.90
11597;DHT22;5854;48.072;16.286;2023-12-20T05:32:47;4.70;67.00
11597;DHT22;5854;48.072;16.286;2023-12-20T05:35:15;4.80;68.10
11597;DHT22;5854;48.072;16.286;2023-12-20T05:37:42;4.90;67.60
11597;DHT22;5854;48.072;16.286;2023-12-20T05:40:10;4.80;67.30
11597;DHT22;5854;48.072;16.286;2023-12-20T05:42:40;5.00;65.80
11597;DHT22;5854;48.072;16.286;2023-12-20T05:45:08;5.20;66.50
11597;DHT22;5854;48.072;16.286;2023-12-20T05:47:36;5.30;65.70
11597;DHT22;5854;48.072;16.286;2023-12-20T05:50:06;5.30;63.60
11597;DHT22;5854;48.072;16.286;2023-12-20T05:52:34;5.20;64.40
11597;DHT22;5854;48.072;16.286;2023-12-20T05:55:01;5.70;63.50
11597;DHT22;5854;48.072;16.286;2023-12-20T05:57:29;5.80;61.30
11597;DHT22;5854;48.072;16.286;2023-12-20T05:59:56;5.70;60.70
11597;DHT22;5854;48.072;16.286;2023-12-20T06:02:23;5.50;61.00
11597;DHT22;5854;48.072;16.286;2023-12-20T06:04:51;5.40;61.00
11597;DHT22;5854;48.072;16.286;2023-12-20T06:07:19;5.60;60.70
11597;DHT22;5854;48.072;16.286;2023-12-20T06:09:46;5.50;60.80
11597;DHT22;5854;48.072;16.286;2023-12-20T06:12:14;5.50;61.60
11597;DHT22;5854;48.072;16.286;2023-12-20T06:14:41;5.60;60.80
11597;DHT22;5854;48.072;16.286;2023-12-20T06:17:08;5.40;61.30
11597;DHT22;5854;48.072;16.286;2023-12-20T06:19:35;5.60;61.10
11597;DHT22;5854;48.072;16.286;2023-12-20T06:22:03;5.70;59.90
11597;DHT22;5854;48.072;16.286;2023-12-20T06:24:32;5.50;60.40
11597;DHT22;5854;48.072;16.286;2023-12-20T06:26:59;5.60;59.50
11597;DHT22;5854;48.072;16.286;2023-12-20T06:29:27;5.70;59.00
11597;DHT22;5854;48.072;16.286;2023-12-20T06:31:55;6.00;58.30
11597;DHT22;5854;48.072;16.286;2023-12-20T06:34:22;5.90;57.80
11597;DHT22;5854;48.072;16.286;2023-12-20T06:36:49;5.90;57.30
11597;DHT22;5854;48.072;16.286;2023-12-20T06:39:16;5.90;57.80
11597;DHT22;5854;48.072;16.286;2023-12-20T06:41:45;6.00;56.60
11597;DHT22;5854;48.072;16.286;2023-12-20T06:44:15;5.90;57.30
11597;DHT22;5854;48.072;16.286;2023-12-20T06:46:42;6.20;60.90
11597;DHT22;5854;48.072;16.286;2023-12-20T06:49:11;6.40;57.70
11597;DHT22;5854;48.072;16.286;2023-12-20T06:51:38;6.40;57.80
11597;DHT22;5854;48.072;16.286;2023-12-20T06:54:06;6.30;58.30
11597;DHT22;5854;48.072;16.286;2023-12-20T06:56:33;6.30;57.30
11597;DHT22;5854;48.072;16.286;2023-12-20T06:59:01;6.20;58.60
11597;DHT22;5854;48.072;16.286;2023-12-20T07:01:29;6.20;58.90
11597;DHT22;5854;48.072;16.286;2023-12-20T07:03:56;6.20;60.50
11597;DHT22;5854;48.072;16.286;2023-12-20T07:06:23;6.30;59.90
11597;DHT22;5854;48.072;16.286;2023-12-20T07:08:52;6.40;59.30
11597;DHT22;5854;48.072;16.286;2023-12-20T07:11:19;6.40;59.30
11597;DHT22;5854;48.072;16.286;2023-12-20T07:13:46;6.00;60.10
11597;DHT22;5854;48.072;16.286;2023-12-20T07:16:15;6.20;59.60
11597;DHT22;5854;48.072;16.286;2023-12-20T07:18:43;6.30;59.90
11597;DHT22;5854;48.072;16.286;2023-12-20T07:21:10;5.90;59.80
11597;DHT22;5854;48.072;16.286;2023-12-20T07:23:37;5.90;63.10
11597;DHT22;5854;48.072;16.286;2023-12-20T07:26:05;6.10;63.20
11597;DHT22;5854;48.072;16.286;2023-12-20T07:28:32;6.10;63.00
11597;DHT22;5854;48.072;16.286;2023-12-20T07:30:59;6.10;60.30
11597;DHT22;5854;48.072;16.286;2023-12-20T07:33:28;6.00;62.10
11597;DHT22;5854;48.072;16.286;2023-12-20T07:35:55;5.90;63.20
11597;DHT22;5854;48.072;16.286;2023-12-20T07:38:22;5.60;60.20
11597;DHT22;5854;48.072;16.286;2023-12-20T07:40:50;5.90;63.00
11597;DHT22;5854;48.072;16.286;2023-12-20T07:43:17;5.80;64.30
11597;DHT22;5854;48.072;16.286;2023-12-20T07:45:45;6.10;63.50
11597;DHT22;5854;48.072;16.286;2023-12-20T07:48:12;6.40;60.30
11597;DHT22;5854;48.072;16.286;2023-12-20T07:50:41;6.20;59.80
11597;DHT22;5854;48.072;16.286;2023-12-20T07:53:08;6.00;59.30
11597;DHT22;5854;48.072;16.286;2023-12-20T07:55:35;6.30;60.60
11597;DHT22;5854;48.072;16.286;2023-12-20T07:58:03;6.40;60.30
11597;DHT22;5854;48.072;16.286;2023-12-20T08:00:30;6.10;59.40
11597;DHT22;5854;48.072;16.286;2023-12-20T08:02:58;6.00;61.80
11597;DHT22;5854;48.072;16.286;2023-12-20T08:05:25;6.10;60.10
11597;DHT22;5854;48.072;16.286;2023-12-20T08:07:53;6.10;59.80
11597;DHT22;5854;48.072;16.286;2023-12-20T08:10:21;5.90;62.70
11597;DHT22;5854;48.072;16.286;2023-12-20T08:12:48;5.90;60.60
11597;DHT22;5854;48.072;16.286;2023-12-20T08:15:15;5.90;60.90
11597;DHT22;5854;48.072;16.286;2023-12-20T08:17:43;6.20;63.10
11597;DHT22;5854;48.072;16.286;2023-12-20T08:20:10;6.00;61.80
11597;DHT22;5854;48.072;16.286;2023-12-20T08:22:38;6.00;61.20
11597;DHT22;5854;48.072;16.286;2023-12-20T08:25:07;6.00;64.00
11597;DHT22;5854;48.072;16.286;2023-12-20T08:27:39;6.00;62.60
11597;DHT22;5854;48.072;16.286;2023-12-20T08:30:08;5.90;63.40
11597;DHT22;5854;48.072;16.286;2023-12-20T08:32:36;5.80;61.80
11597;DHT22;5854;48.072;16.286;2023-12-20T08:35:04;6.10;64.50
11597;DHT22;5854;48.072;16.286;2023-12-20T08:37:32;6.20;60.70
11597;DHT22;5854;48.072;16.286;2023-12-20T08:39:59;5.60;62.00
11597;DHT22;5854;48.072;16.286;2023-12-20T08:42:27;5.30;64.60
11597;DHT22;5854;48.072;16.286;2023-12-20T08:44:57;5.50;64.70
11597;DHT22;5854;48.072;16.286;2023-12-20T08:47:24;5.70;62.60
11597;DHT22;5854;48.072;16.286;2023-12-20T08:49:52;5.70;64.50
11597;DHT22;5854;48.072;16.286;2023-12-20T08:52:22;5.70;63.70
11597;DHT22;5854;48.072;16.286;2023-12-20T08:54:50;5.90;63.40
11597;DHT22;5854;48.072;16.286;2023-12-20T08:57:19;6.20;62.20
11597;DHT22;5854;48.072;16.286;2023-12-20T08:59:50;6.40;63.20
11597;DHT22;5854;48.072;16.286;2023-12-20T09:02:17;5.80;61.50
11597;DHT22;5854;48.072;16.286;2023-12-20T09:04:44;5.40;63.70
11597;DHT22;5854;48.072;16.286;2023-12-20T09:07:21;5.80;65.40
11597;DHT22;5854;48.072;16.286;2023-12-20T09:09:49;5.70;64.00
11597;DHT22;5854;48.072;16.286;2023-12-20T09:12:18;6.00;66.00
11597;DHT22;5854;48.072;16.286;2023-12-20T09:14:45;5.70;64.50
11597;DHT22;5854;48.072;16.286;2023-12-20T09:17:14;5.60;66.40
11597;DHT22;5854;48.072;16.286;2023-12-20T09:19:41;5.60;68.30
11597;DHT22;5854;48.072;16.286;2023-12-20T09:22:09;6.10;67.60
11597;DHT22;5854;48.072;16.286;2023-12-20T09:24:37;6.10;67.40
11597;DHT22;5854;48.072;16.286;2023-12-20T09:27:05;6.10;65.20
11597;DHT22;5854;48.072;16.286;2023-12-20T09:29:33;5.70;66.00
11597;DHT22;5854;48.072;16.286;2023-12-20T09:32:00;5.80;67.30
11597;DHT22;5854;48.072;16.286;2023-12-20T09:34:28;5.80;69.50
11597;DHT22;5854;48.072;16.286;2023-12-20T09:36:56;5.20;66.40
11597;DHT22;5854;48.072;16.286;2023-12-20T09:39:23;5.40;67.20
11597;DHT22;5854;48.072;16.286;2023-12-20T09:41:59;5.60;69.50
11597;DHT22;5854;48.072;16.286;2023-12-20T09:44:28;5.40;68.20
11597;DHT22;5854;48.072;16.286;2023-12-20T09:46:56;5.60;71.80
11597;DHT22;5854;48.072;16.286;2023-12-20T09:49:23;5.40;69.50
11597;DHT22;5854;48.072;16.286;2023-12-20T09:51:54;5.60;72.80
11597;DHT22;5854;48.072;16.286;2023-12-20T09:54:22;5.50;71.50
11597;DHT22;5854;48.072;16.286;2023-12-20T09:56:50;5.50;69.60
11597;DHT22;5854;48.072;16.286;2023-12-20T09:59:17;5.20;68.90
11597;DHT22;5854;48.072;16.286;2023-12-20T10:01:45;5.40;72.70
11597;DHT22;5854;48.072;16.286;2023-12-20T10:04:13;5.40;73.00
11597;DHT22;5854;48.072;16.286;2023-12-20T10:06:40;5.60;71.90
11597;DHT22;5854;48.072;16.286;2023-12-20T10:09:10;5.60;69.60
11597;DHT22;5854;48.072;16.286;2023-12-20T10:11:38;5.40;69.90
11597;DHT22;5854;48.072;16.286;2023-12-20T10:14:07;5.70;73.80
11597;DHT22;5854;48.072;16.286;2023-12-20T10:16:34;5.80;73.00
11597;DHT22;5854;48.072;16.286;2023-12-20T10:19:01;5.70;69.40
11597;DHT22;5854;48.072;16.286;2023-12-20T10:21:30;5.30;70.20
11597;DHT22;5854;48.072;16.286;2023-12-20T10:23:58;5.30;77.10
11597;DHT22;5854;48.072;16.286;2023-12-20T10:26:26;5.30;74.60
11597;DHT22;5854;48.072;16.286;2023-12-20T10:28:56;5.40;72.70
11597;DHT22;5854;48.072;16.286;2023-12-20T10:31:28;5.30;72.30
11597;DHT22;5854;48.072;16.286;2023-12-20T10:33:57;5.30;72.90
11597;DHT22;5854;48.072;16.286;2023-12-20T10:36:25;5.50;72.20
11597;DHT22;5854;48.072;16.286;2023-12-20T10:38:54;5.40;71.50
11597;DHT22;5854;48.072;16.286;2023-12-20T10:41:26;5.30;74.30
11597;DHT22;5854;48.072;16.286;2023-12-20T10:43:59;5.20;71.50
11597;DHT22;5854;48.072;16.286;2023-12-20T10:46:29;5.20;74.30
11597;DHT22;5854;48.072;16.286;2023-12-20T10:48:58;5.30;74.80
11597;DHT22;5854;48.072;16.286;2023-12-20T10:51:25;5.50;71.20
11597;DHT22;5854;48.072;16.286;2023-12-20T10:53:56;5.50;70.50
11597;DHT22;5854;48.072;16.286;2023-12-20T10:56:23;5.80;72.50
11597;DHT22;5854;48.072;16.286;2023-12-20T10:58:52;5.90;72.70
11597;DHT22;5854;48.072;16.286;2023-12-20T11:01:20;5.70;70.80
11597;DHT22;5854;48.072;16.286;2023-12-20T11:03:49;5.70;73.50
11597;DHT22;5854;48.072;16.286;2023-12-20T11:06:27;5.90;70.80
11597;DHT22;5854;48.072;16.286;2023-12-20T11:09:10;5.90;70.50
11597;DHT22;5854;48.072;16.286;2023-12-20T11:11:52;5.60;69.30
11597;DHT22;5854;48.072;16.286;2023-12-20T11:14:29;5.50;72.80
11597;DHT22;5854;48.072;16.286;2023-12-20T11:17:07;5.50;71.40
11597;DHT22;5854;48.072;16.286;2023-12-20T11:19:37;5.70;70.60
11597;DHT22;5854;48.072;16.286;2023-12-20T11:22:05;5.90;71.00
11597;DHT22;5854;48.072;16.286;2023-12-20T11:24:33;5.70;71.30
11597;DHT22;5854;48.072;16.286;2023-12-20T11:27:03;5.60;73.00
11597;DHT22;5854;48.072;16.286;2023-12-20T11:29:33;5.80;73.80
11597;DHT22;5854;48.072;16.286;2023-12-20T11:32:02;5.90;72.70
11597;DHT22;5854;48.072;16.286;2023-12-20T11:34:32;5.70;70.40
11597;DHT22;5854;48.072;16.286;2023-12-20T11:37:01;5.60;71.50
11597;DHT22;5854;48.072;16.286;2023-12-20T11:39:31;5.90;70.90
11597;DHT22;5854;48.072;16.286;2023-12-20T11:42:04;6.10;70.90
11597;DHT22;5854;48.072;16.286;2023-12-20T11:44:36;6.10;69.10
11597;DHT22;5854;48.072;16.286;2023-12-20T11:47:04;6.30;69.50
11597;DHT22;5854;48.072;16.286;2023-12-20T11:49:31;6.00;68.10
11597;DHT22;5854;48.072;16.286;2023-12-20T11:51:58;6.30;69.90
11597;DHT22;5854;48.072;16.286;2023-12-20T11:54:26;6.40;69.20
11597;DHT22;5854;48.072;16.286;2023-12-20T11:56:53;6.30;68.80
11597;DHT22;5854;48.072;16.286;2023-12-20T11:59:20;6.10;69.40
11597;DHT22;5854;48.072;16.286;2023-12-20T12:01:50;6.10;70.30
11597;DHT22;5854;48.072;16.286;2023-12-20T12:04:17;6.20;69.60
11597;DHT22;5854;48.072;16.286;2023-12-20T12:06:46;6.20;69.50
11597;DHT22;5854;48.072;16.286;2023-12-20T12:09:13;6.60;68.70
11597;DHT22;5854;48.072;16.286;2023-12-20T12:11:40;6.60;67.40
11597;DHT22;5854;48.072;16.286;2023-12-20T12:14:08;6.50;67.70
11597;DHT22;5854;48.072;16.286;2023-12-20T12:16:35;6.60;67.90
11597;DHT22;5854;48.072;16.286;2023-12-20T12:19:04;6.40;67.60
11597;DHT22;5854;48.072;16.286;2023-12-20T12:21:31;6.40;68.40
11597;DHT22;5854;48.072;16.286;2023-12-20T12:24:07;6.60;68.50
11597;DHT22;5854;48.072;16.286;2023-12-20T12:26:34;6.00;70.30
11597;DHT22;5854;48.072;16.286;2023-12-20T12:29:01;6.00;69.60
11597;DHT22;5854;48.072;16.286;2023-12-20T12:31:29;6.20;69.60
11597;DHT22;5854;48.072;16.286;2023-12-20T12:33:57;6.50;67.90
11597;DHT22;5854;48.072;16.286;2023-12-20T12:36:25;6.30;68.70
11597;DHT22;5854;48.072;16.286;2023-12-20T12:38:52;6.50;70.10
11597;DHT22;5854;48.072;16.286;2023-12-20T12:41:20;6.60;67.30
11597;DHT22;5854;48.072;16.286;2023-12-20T12:43:47;6.60;70.00
11597;DHT22;5854;48.072;16.286;2023-12-20T12:46:14;6.40;68.30
11597;DHT22;5854;48.072;16.286;2023-12-20T12:48:42;6.20;69.00
11597;DHT22;5854;48.072;16.286;2023-12-20T12:51:09;6.30;72.40
11597;DHT22;5854;48.072;16.286;2023-12-20T12:53:40;6.40;70.40
11597;DHT22;5854;48.072;16.286;2023-12-20T12:56:08;6.50;69.60
11597;DHT22;5854;48.072;16.286;2023-12-20T12:58:35;6.30;70.00
11597;DHT22;5854;48.072;16.286;2023-12-20T13:01:03;6.30;72.30
11597;DHT22;5854;48.072;16.286;2023-12-20T13:03:30;6.20;69.60
11597;DHT22;5854;48.072;16.286;2023-12-20T13:05:57;6.50;72.10
11597;DHT22;5854;48.072;16.286;2023-12-20T13:08:25;6.50;68.70
11597;DHT22;5854;48.072;16.286;2023-12-20T13:10:54;6.40;69.40
11597;DHT22;5854;48.072;16.286;2023-12-20T13:13:23;6.40;69.50
11597;DHT22;5854;48.072;16.286;2023-12-20T13:15:50;6.40;69.20
11597;DHT22;5854;48.072;16.286;2023-12-20T13:18:20;6.30;70.00
11597;DHT22;5854;48.072;16.286;2023-12-20T13:20:47;6.30;71.00
11597;DHT22;5854;48.072;16.286;2023-12-20T13:23:15;6.30;70.30
11597;DHT22;5854;48.072;16.286;2023-12-20T13:25:44;6.30;70.30
11597;DHT22;5854;48.072;16.286;2023-12-20T13:28:13;6.40;70.40
11597;DHT22;5854;48.072;16.286;2023-12-20T13:30:41;6.30;70.30
11597;DHT22;5854;48.072;16.286;2023-12-20T13:33:08;6.40;71.00
11597;DHT22;5854;48.072;16.286;2023-12-20T13:35:35;6.40;70.70
11597;DHT22;5854;48.072;16.286;2023-12-20T13:38:03;6.40;71.30
11597;DHT22;5854;48.072;16.286;2023-12-20T13:40:30;6.40;70.90
11597;DHT22;5854;48.072;16.286;2023-12-20T13:42:58;6.30;70.10
11597;DHT22;5854;48.072;16.286;2023-12-20T13:45:26;6.20;71.00
11597;DHT22;5854;48.072;16.286;2023-12-20T13:47:53;6.20;70.50
11597;DHT22;5854;48.072;16.286;2023-12-20T13:50:21;6.20;70.90
11597;DHT22;5854;48.072;16.286;2023-12-20T13:52:48;6.10;72.10
11597;DHT22;5854;48.072;16.286;2023-12-20T13:55:15;5.90;73.00
11597;DHT22;5854;48.072;16.286;2023-12-20T13:57:43;6.10;72.50
11597;DHT22;5854;48.072;16.286;2023-12-20T14:00:11;6.30;71.60
11597;DHT22;5854;48.072;16.286;2023-12-20T14:02:42;6.30;71.90
11597;DHT22;5854;48.072;16.286;2023-12-20T14:05:09;6.20;72.10
11597;DHT22;5854;48.072;16.286;2023-12-20T14:07:37;6.30;71.80
11597;DHT22;5854;48.072;16.286;2023-12-20T14:10:05;6.20;71.90
11597;DHT22;5854;48.072;16.286;2023-12-20T14:12:33;6.30;70.80
11597;DHT22;5854;48.072;16.286;2023-12-20T14:15:02;6.30;70.30
11597;DHT22;5854;48.072;16.286;2023-12-20T14:17:29;6.30;70.90
11597;DHT22;5854;48.072;16.286;2023-12-20T14:19:58;6.20;71.80
11597;DHT22;5854;48.072;16.286;2023-12-20T14:22:26;6.30;71.30
11597;DHT22;5854;48.072;16.286;2023-12-20T14:24:54;6.20;73.30
11597;DHT22;5854;48.072;16.286;2023-12-20T14:27:23;6.30;71.90
11597;DHT22;5854;48.072;16.286;2023-12-20T14:29:53;6.40;71.70
11597;DHT22;5854;48.072;16.286;2023-12-20T14:32:20;6.50;71.50
11597;DHT22;5854;48.072;16.286;2023-12-20T14:34:48;6.40;71.80
11597;DHT22;5854;48.072;16.286;2023-12-20T14:37:16;6.40;72.70
11597;DHT22;5854;48.072;16.286;2023-12-20T14:39:44;6.50;72.50
11597;DHT22;5854;48.072;16.286;2023-12-20T14:42:11;6.50;72.50
11597;DHT22;5854;48.072;16.286;2023-12-20T14:44:39;6.50;72.50
11597;DHT22;5854;48.072;16.286;2023-12-20T14:47:07;6.40;71.50
11597;DHT22;5854;48.072;16.286;2023-12-20T14:49:34;6.50;72.00
11597;DHT22;5854;48.072;16.286;2023-12-20T14:52:03;6.60;72.10
11597;DHT22;5854;48.072;16.286;2023-12-20T14:54:32;6.60;72.70
11597;DHT22;5854;48.072;16.286;2023-12-20T14:56:59;6.60;72.30
11597;DHT22;5854;48.072;16.286;2023-12-20T14:59:26;6.60;72.80
11597;DHT22;5854;48.072;16.286;2023-12-20T15:01:54;6.50;73.50
11597;DHT22;5854;48.072;16.286;2023-12-20T15:04:21;6.40;75.00
11597;DHT22;5854;48.072;16.286;2023-12-20T15:06:54;6.50;74.20
11597;DHT22;5854;48.072;16.286;2023-12-20T15:09:21;6.40;73.90
11597;DHT22;5854;48.072;16.286;2023-12-20T15:11:51;6.40;73.00
11597;DHT22;5854;48.072;16.286;2023-12-20T15:14:18;6.50;73.10
11597;DHT22;5854;48.072;16.286;2023-12-20T15:16:46;6.50;74.40
11597;DHT22;5854;48.072;16.286;2023-12-20T15:19:14;6.40;73.10
11597;DHT22;5854;48.072;16.286;2023-12-20T15:21:42;6.60;71.20
11597;DHT22;5854;48.072;16.286;2023-12-20T15:24:09;6.50;72.90
11597;DHT22;5854;48.072;16.286;2023-12-20T15:26:41;6.60;71.60
11597;DHT22;5854;48.072;16.286;2023-12-20T15:29:10;6.70;71.20
11597;DHT22;5854;48.072;16.286;2023-12-20T15:31:42;6.60;70.80
11597;DHT22;5854;48.072;16.286;2023-12-20T15:34:10;6.50;71.30
11597;DHT22;5854;48.072;16.286;2023-12-20T15:36:38;6.60;68.90
11597;DHT22;5854;48.072;16.286;2023-12-20T15:39:06;6.50;70.80
11597;DHT22;5854;48.072;16.286;2023-12-20T15:41:35;6.50;70.40
11597;DHT22;5854;48.072;16.286;2023-12-20T15:44:02;6.50;70.50
11597;DHT22;5854;48.072;16.286;2023-12-20T15:46:31;6.50;71.80